sensor_id;sensor_type;location;lat;lon;timestamp;temperature;humidity
7254;DHT22;4060;49.186;9.226;2022-08-03T00:01:56;31.30;31.80
7254;DHT22;4060;49.186;9.226;2022-08-03T00:04:26;31.30;31.80
7254;DHT22;4060;49.186;9.226;2022-08-03T00:06:55;31.30;31.90
7254;DHT22;4060;49.186;9.226;2022-08-03T00:09:24;31.20;31.90
7254;DHT22;4060;49.186;9.226;2022-08-03T00:11:54;31.20;31.90
7254;DHT22;4060;49.186;9.226;2022-08-03T00:14:25;31.20;32.00
7254;DHT22;4060;49.186;9.226;2022-08-03T00:16:55;31.20;32.00
7254;DHT22;4060;49.186;9.226;2022-08-03T00:19:24;31.10;32.00
7254;DHT22;4060;49.186;9.226;2022-08-03T00:21:54;31.10;32.00
7254;DHT22;4060;49.186;9.226;2022-08-03T00:24:24;31.10;32.00
7254;DHT22;4060;49.186;9.226;2022-08-03T00:26:54;31.10;32.00
7254;DHT22;4060;49.186;9.226;2022-08-03T00:29:26;31.00;32.00
7254;DHT22;4060;49.186;9.226;2022-08-03T00:31:56;31.00;32.10
7254;DHT22;4060;49.186;9.226;2022-08-03T00:34:25;31.00;32.10
7254;DHT22;4060;49.186;9.226;2022-08-03T00:36:55;31.00;32.10
7254;DHT22;4060;49.186;9.226;2022-08-03T00:39:25;30.90;32.10
7254;DHT22;4060;49.186;9.226;2022-08-03T00:41:54;30.90;32.20
7254;DHT22;4060;49.186;9.226;2022-08-03T00:44:26;30.90;32.20
7254;DHT22;4060;49.186;9.226;2022-08-03T00:46:56;30.90;32.20
7254;DHT22;4060;49.186;9.226;2022-08-03T00:49:25;30.90;32.30
7254;DHT22;4060;49.186;9.226;2022-08-03T00:51:56;30.80;32.20
7254;DHT22;4060;49.186;9.226;2022-08-03T00:54:27;30.80;32.30
7254;DHT22;4060;49.186;9.226;2022-08-03T00:56:57;30.80;32.30
7254;DHT22;4060;49.186;9.226;2022-08-03T00:59:29;30.80;32.40
7254;DHT22;4060;49.186;9.226;2022-08-03T01:01:59;30.70;32.40
7254;DHT22;4060;49.186;9.226;2022-08-03T01:04:28;30.70;32.40
7254;DHT22;4060;49.186;9.226;2022-08-03T01:07:05;30.70;32.40
7254;DHT22;4060;49.186;9.226;2022-08-03T01:09:45;30.70;32.70
7254;DHT22;4060;49.186;9.226;2022-08-03T01:12:27;30.60;32.50
7254;DHT22;4060;49.186;9.226;2022-08-03T01:15:09;30.60;32.50
7254;DHT22;4060;49.186;9.226;2022-08-03T01:17:48;30.60;32.60
7254;DHT22;4060;49.186;9.226;2022-08-03T01:20:20;30.60;32.60
7254;DHT22;4060;49.186;9.226;2022-08-03T01:23:21;30.50;32.60
7254;DHT22;4060;49.186;9.226;2022-08-03T01:26:18;30.50;32.70
7254;DHT22;4060;49.186;9.226;2022-08-03T01:29:08;30.50;32.70
7254;DHT22;4060;49.186;9.226;2022-08-03T01:31:51;30.40;32.70
7254;DHT22;4060;49.186;9.226;2022-08-03T01:34:27;30.40;32.80
7254;DHT22;4060;49.186;9.226;2022-08-03T01:37:06;30.40;32.80
7254;DHT22;4060;49.186;9.226;2022-08-03T01:39:37;30.40;32.80
7254;DHT22;4060;49.186;9.226;2022-08-03T01:42:08;30.30;32.80
7254;DHT22;4060;49.186;9.226;2022-08-03T01:44:41;30.30;32.80
7254;DHT22;4060;49.186;9.226;2022-08-03T01:47:19;30.30;32.90
7254;DHT22;4060;49.186;9.226;2022-08-03T01:49:52;30.30;32.90
7254;DHT22;4060;49.186;9.226;2022-08-03T01:52:22;30.30;33.00
7254;DHT22;4060;49.186;9.226;2022-08-03T01:54:53;30.20;32.90
7254;DHT22;4060;49.186;9.226;2022-08-03T01:57:23;30.30;33.00
7254;DHT22;4060;49.186;9.226;2022-08-03T01:59:55;30.20;33.00
7254;DHT22;4060;49.186;9.226;2022-08-03T02:02:28;30.20;33.10
7254;DHT22;4060;49.186;9.226;2022-08-03T02:05:00;30.20;33.10
7254;DHT22;4060;49.186;9.226;2022-08-03T02:07:30;30.10;33.10
7254;DHT22;4060;49.186;9.226;2022-08-03T02:10:03;30.10;33.10
7254;DHT22;4060;49.186;9.226;2022-08-03T02:12:35;30.10;33.20
7254;DHT22;4060;49.186;9.226;2022-08-03T02:15:07;30.10;33.30
7254;DHT22;4060;49.186;9.226;2022-08-03T02:17:39;30.10;33.30
7254;DHT22;4060;49.186;9.226;2022-08-03T02:20:11;30.00;33.30
7254;DHT22;4060;49.186;9.226;2022-08-03T02:22:42;30.00;33.30
7254;DHT22;4060;49.186;9.226;2022-08-03T02:25:14;30.00;33.30
7254;DHT22;4060;49.186;9.226;2022-08-03T02:27:50;30.00;33.40
7254;DHT22;4060;49.186;9.226;2022-08-03T02:30:22;29.90;33.40
7254;DHT22;4060;49.186;9.226;2022-08-03T02:32:57;29.90;33.40
7254;DHT22;4060;49.186;9.226;2022-08-03T02:35:28;29.90;33.50
7254;DHT22;4060;49.186;9.226;2022-08-03T02:38:00;29.90;33.50
7254;DHT22;4060;49.186;9.226;2022-08-03T02:40:31;29.80;33.50
7254;DHT22;4060;49.186;9.226;2022-08-03T02:43:05;29.80;33.50
7254;DHT22;4060;49.186;9.226;2022-08-03T02:45:38;29.80;33.60
7254;DHT22;4060;49.186;9.226;2022-08-03T02:48:16;29.80;33.70
7254;DHT22;4060;49.186;9.226;2022-08-03T02:50:47;29.70;33.90
7254;DHT22;4060;49.186;9.226;2022-08-03T02:53:18;29.70;33.70
7254;DHT22;4060;49.186;9.226;2022-08-03T02:55:49;29.70;33.80
7254;DHT22;4060;49.186;9.226;2022-08-03T02:58:20;29.70;33.80
7254;DHT22;4060;49.186;9.226;2022-08-03T03:00:53;29.70;33.90
7254;DHT22;4060;49.186;9.226;2022-08-03T03:03:25;29.60;33.90
7254;DHT22;4060;49.186;9.226;2022-08-03T03:05:56;29.60;34.00
7254;DHT22;4060;49.186;9.226;2022-08-03T03:08:27;29.60;34.00
7254;DHT22;4060;49.186;9.226;2022-08-03T03:10:58;29.60;34.10
7254;DHT22;4060;49.186;9.226;2022-08-03T03:13:30;29.60;34.10
7254;DHT22;4060;49.186;9.226;2022-08-03T03:16:03;29.50;34.10
7254;DHT22;4060;49.186;9.226;2022-08-03T03:18:37;29.50;34.20
7254;DHT22;4060;49.186;9.226;2022-08-03T03:21:09;29.50;34.20
7254;DHT22;4060;49.186;9.226;2022-08-03T03:23:40;29.40;34.20
7254;DHT22;4060;49.186;9.226;2022-08-03T03:26:09;29.40;34.20
7254;DHT22;4060;49.186;9.226;2022-08-03T03:28:42;29.40;34.20
7254;DHT22;4060;49.186;9.226;2022-08-03T03:31:12;29.40;34.30
7254;DHT22;4060;49.186;9.226;2022-08-03T03:33:44;29.40;34.30
7254;DHT22;4060;49.186;9.226;2022-08-03T03:36:14;29.30;34.30
7254;DHT22;4060;49.186;9.226;2022-08-03T03:38:45;29.30;34.30
7254;DHT22;4060;49.186;9.226;2022-08-03T03:41:15;29.30;34.40
7254;DHT22;4060;49.186;9.226;2022-08-03T03:43:44;29.30;34.40
7254;DHT22;4060;49.186;9.226;2022-08-03T03:46:14;29.20;34.40
7254;DHT22;4060;49.186;9.226;2022-08-03T03:48:46;29.20;34.50
7254;DHT22;4060;49.186;9.226;2022-08-03T03:51:16;29.20;34.50
7254;DHT22;4060;49.186;9.226;2022-08-03T03:53:56;29.20;34.50
7254;DHT22;4060;49.186;9.226;2022-08-03T03:56:26;29.20;34.60
7254;DHT22;4060;49.186;9.226;2022-08-03T03:58:56;29.10;34.60
7254;DHT22;4060;49.186;9.226;2022-08-03T04:01:26;29.10;34.60
7254;DHT22;4060;49.186;9.226;2022-08-03T04:03:58;29.10;34.70
7254;DHT22;4060;49.186;9.226;2022-08-03T04:06:49;29.10;34.80
7254;DHT22;4060;49.186;9.226;2022-08-03T04:09:35;29.00;34.70
7254;DHT22;4060;49.186;9.226;2022-08-03T04:12:25;29.00;34.80
7254;DHT22;4060;49.186;9.226;2022-08-03T04:14:56;29.00;34.80
7254;DHT22;4060;49.186;9.226;2022-08-03T04:17:27;28.90;34.80
7254;DHT22;4060;49.186;9.226;2022-08-03T04:20:01;28.90;34.80
7254;DHT22;4060;49.186;9.226;2022-08-03T04:22:33;28.90;35.00
7254;DHT22;4060;49.186;9.226;2022-08-03T04:25:08;28.90;35.00
7254;DHT22;4060;49.186;9.226;2022-08-03T04:27:39;28.90;35.00
7254;DHT22;4060;49.186;9.226;2022-08-03T04:30:10;28.80;35.00
7254;DHT22;4060;49.186;9.226;2022-08-03T04:32:40;28.80;35.10
7254;DHT22;4060;49.186;9.226;2022-08-03T04:35:16;28.80;35.10
7254;DHT22;4060;49.186;9.226;2022-08-03T04:37:48;28.80;35.20
7254;DHT22;4060;49.186;9.226;2022-08-03T04:40:24;28.80;35.20
7254;DHT22;4060;49.186;9.226;2022-08-03T04:42:56;28.80;35.30
7254;DHT22;4060;49.186;9.226;2022-08-03T04:45:27;28.70;35.30
7254;DHT22;4060;49.186;9.226;2022-08-03T04:47:58;28.70;35.40
7254;DHT22;4060;49.186;9.226;2022-08-03T04:50:30;28.70;35.40
7254;DHT22;4060;49.186;9.226;2022-08-03T04:52:59;28.70;35.50
7254;DHT22;4060;49.186;9.226;2022-08-03T04:55:30;28.70;35.50
7254;DHT22;4060;49.186;9.226;2022-08-03T04:58:02;28.70;35.50
7254;DHT22;4060;49.186;9.226;2022-08-03T05:00:32;28.70;35.60
7254;DHT22;4060;49.186;9.226;2022-08-03T05:03:03;28.70;35.60
7254;DHT22;4060;49.186;9.226;2022-08-03T05:05:35;28.70;35.60
7254;DHT22;4060;49.186;9.226;2022-08-03T05:08:05;28.60;35.60
7254;DHT22;4060;49.186;9.226;2022-08-03T05:10:35;28.60;35.70
7254;DHT22;4060;49.186;9.226;2022-08-03T05:13:05;28.60;35.70
7254;DHT22;4060;49.186;9.226;2022-08-03T05:15:38;28.60;35.70
7254;DHT22;4060;49.186;9.226;2022-08-03T05:18:08;28.60;35.80
7254;DHT22;4060;49.186;9.226;2022-08-03T05:20:40;28.60;35.80
7254;DHT22;4060;49.186;9.226;2022-08-03T05:23:09;28.60;35.90
7254;DHT22;4060;49.186;9.226;2022-08-03T05:25:39;28.60;35.90
7254;DHT22;4060;49.186;9.226;2022-08-03T05:28:08;28.60;36.00
7254;DHT22;4060;49.186;9.226;2022-08-03T05:30:37;28.60;36.10
7254;DHT22;4060;49.186;9.226;2022-08-03T05:33:08;28.60;36.10
7254;DHT22;4060;49.186;9.226;2022-08-03T05:35:40;28.60;36.20
7254;DHT22;4060;49.186;9.226;2022-08-03T05:38:10;28.60;36.20
7254;DHT22;4060;49.186;9.226;2022-08-03T05:40:39;28.70;36.30
7254;DHT22;4060;49.186;9.226;2022-08-03T05:43:09;28.70;36.50
7254;DHT22;4060;49.186;9.226;2022-08-03T05:45:39;28.70;36.50
7254;DHT22;4060;49.186;9.226;2022-08-03T05:48:09;28.70;36.60
7254;DHT22;4060;49.186;9.226;2022-08-03T05:50:41;28.70;36.60
7254;DHT22;4060;49.186;9.226;2022-08-03T05:53:10;28.80;36.80
7254;DHT22;4060;49.186;9.226;2022-08-03T05:55:40;28.80;36.90
7254;DHT22;4060;49.186;9.226;2022-08-03T05:58:09;28.80;36.90
7254;DHT22;4060;49.186;9.226;2022-08-03T06:00:40;28.80;37.00
7254;DHT22;4060;49.186;9.226;2022-08-03T06:03:10;28.80;37.00
7254;DHT22;4060;49.186;9.226;2022-08-03T06:05:41;28.80;37.00
7254;DHT22;4060;49.186;9.226;2022-08-03T06:08:10;28.90;37.10
7254;DHT22;4060;49.186;9.226;2022-08-03T06:10:40;28.90;37.00
7254;DHT22;4060;49.186;9.226;2022-08-03T06:13:10;28.90;37.10
7254;DHT22;4060;49.186;9.226;2022-08-03T06:15:39;29.00;37.10
7254;DHT22;4060;49.186;9.226;2022-08-03T06:18:08;29.00;37.10
7254;DHT22;4060;49.186;9.226;2022-08-03T06:20:37;29.00;37.10
7254;DHT22;4060;49.186;9.226;2022-08-03T06:23:10;29.00;37.10
7254;DHT22;4060;49.186;9.226;2022-08-03T06:25:39;29.10;37.10
7254;DHT22;4060;49.186;9.226;2022-08-03T06:28:09;29.10;37.10
7254;DHT22;4060;49.186;9.226;2022-08-03T06:30:40;29.10;37.10
7254;DHT22;4060;49.186;9.226;2022-08-03T06:33:09;29.10;37.10
7254;DHT22;4060;49.186;9.226;2022-08-03T06:35:39;29.20;37.10
7254;DHT22;4060;49.186;9.226;2022-08-03T06:38:10;29.20;37.10
7254;DHT22;4060;49.186;9.226;2022-08-03T06:40:40;29.20;37.10
7254;DHT22;4060;49.186;9.226;2022-08-03T06:43:10;29.20;37.10
7254;DHT22;4060;49.186;9.226;2022-08-03T06:45:41;29.20;37.10
7254;DHT22;4060;49.186;9.226;2022-08-03T06:48:10;29.30;37.10
7254;DHT22;4060;49.186;9.226;2022-08-03T06:50:41;29.30;37.10
7254;DHT22;4060;49.186;9.226;2022-08-03T06:53:12;29.30;37.10
7254;DHT22;4060;49.186;9.226;2022-08-03T06:55:41;29.30;37.10
7254;DHT22;4060;49.186;9.226;2022-08-03T06:58:11;29.30;37.10
7254;DHT22;4060;49.186;9.226;2022-08-03T07:00:41;29.30;37.00
7254;DHT22;4060;49.186;9.226;2022-08-03T07:03:10;29.30;37.00
7254;DHT22;4060;49.186;9.226;2022-08-03T07:05:41;29.40;37.00
7254;DHT22;4060;49.186;9.226;2022-08-03T07:08:14;29.40;37.10
7254;DHT22;4060;49.186;9.226;2022-08-03T07:10:44;29.40;37.00
7254;DHT22;4060;49.186;9.226;2022-08-03T07:13:14;29.40;37.00
7254;DHT22;4060;49.186;9.226;2022-08-03T07:15:43;29.40;37.00
7254;DHT22;4060;49.186;9.226;2022-08-03T07:18:12;29.40;37.00
7254;DHT22;4060;49.186;9.226;2022-08-03T07:20:44;29.40;37.00
7254;DHT22;4060;49.186;9.226;2022-08-03T07:23:16;29.50;37.00
7254;DHT22;4060;49.186;9.226;2022-08-03T07:25:45;29.50;37.00
7254;DHT22;4060;49.186;9.226;2022-08-03T07:28:15;29.50;37.00
7254;DHT22;4060;49.186;9.226;2022-08-03T07:30:45;29.50;37.00
7254;DHT22;4060;49.186;9.226;2022-08-03T07:33:15;29.50;37.00
7254;DHT22;4060;49.186;9.226;2022-08-03T07:35:44;29.50;37.00
7254;DHT22;4060;49.186;9.226;2022-08-03T07:38:16;29.50;37.00
7254;DHT22;4060;49.186;9.226;2022-08-03T07:40:46;29.60;37.10
7254;DHT22;4060;49.186;9.226;2022-08-03T07:43:15;29.60;37.10
7254;DHT22;4060;49.186;9.226;2022-08-03T07:45:45;29.60;37.10
7254;DHT22;4060;49.186;9.226;2022-08-03T07:48:15;29.60;37.10
7254;DHT22;4060;49.186;9.226;2022-08-03T07:50:44;29.60;37.10
7254;DHT22;4060;49.186;9.226;2022-08-03T07:53:16;29.60;37.10
7254;DHT22;4060;49.186;9.226;2022-08-03T07:55:45;29.60;37.10
7254;DHT22;4060;49.186;9.226;2022-08-03T07:58:16;29.70;37.10
7254;DHT22;4060;49.186;9.226;2022-08-03T08:00:45;29.70;37.20
7254;DHT22;4060;49.186;9.226;2022-08-03T08:03:15;29.70;37.10
7254;DHT22;4060;49.186;9.226;2022-08-03T08:05:44;29.70;37.10
7254;DHT22;4060;49.186;9.226;2022-08-03T08:08:16;29.70;37.20
7254;DHT22;4060;49.186;9.226;2022-08-03T08:10:46;29.70;37.20
7254;DHT22;4060;49.186;9.226;2022-08-03T08:13:15;29.70;37.20
7254;DHT22;4060;49.186;9.226;2022-08-03T08:15:45;29.70;37.20
7254;DHT22;4060;49.186;9.226;2022-08-03T08:18:14;29.70;37.20
7254;DHT22;4060;49.186;9.226;2022-08-03T08:20:44;29.80;37.20
7254;DHT22;4060;49.186;9.226;2022-08-03T08:23:16;29.80;37.20
7254;DHT22;4060;49.186;9.226;2022-08-03T08:25:50;29.80;37.20
7254;DHT22;4060;49.186;9.226;2022-08-03T08:28:20;29.80;37.30
7254;DHT22;4060;49.186;9.226;2022-08-03T08:30:49;29.80;37.20
7254;DHT22;4060;49.186;9.226;2022-08-03T08:33:18;29.80;37.30
7254;DHT22;4060;49.186;9.226;2022-08-03T08:35:48;29.80;37.30
7254;DHT22;4060;49.186;9.226;2022-08-03T08:38:19;29.90;37.30
7254;DHT22;4060;49.186;9.226;2022-08-03T08:40:49;29.90;37.30
7254;DHT22;4060;49.186;9.226;2022-08-03T08:43:18;29.90;37.30
7254;DHT22;4060;49.186;9.226;2022-08-03T08:45:49;29.90;37.30
7254;DHT22;4060;49.186;9.226;2022-08-03T08:48:23;29.90;37.30
7254;DHT22;4060;49.186;9.226;2022-08-03T08:50:53;30.00;37.30
7254;DHT22;4060;49.186;9.226;2022-08-03T08:53:25;30.00;37.30
7254;DHT22;4060;49.186;9.226;2022-08-03T08:55:58;30.00;37.30
7254;DHT22;4060;49.186;9.226;2022-08-03T08:58:30;30.00;37.30
7254;DHT22;4060;49.186;9.226;2022-08-03T09:01:01;30.00;37.30
7254;DHT22;4060;49.186;9.226;2022-08-03T09:03:33;30.00;37.30
7254;DHT22;4060;49.186;9.226;2022-08-03T09:06:04;30.10;37.80
7254;DHT22;4060;49.186;9.226;2022-08-03T09:08:36;30.10;37.30
7254;DHT22;4060;49.186;9.226;2022-08-03T09:11:06;30.10;37.30
7254;DHT22;4060;49.186;9.226;2022-08-03T09:13:36;30.10;37.20
7254;DHT22;4060;49.186;9.226;2022-08-03T09:16:13;30.20;37.30
7254;DHT22;4060;49.186;9.226;2022-08-03T09:18:44;30.20;37.20
7254;DHT22;4060;49.186;9.226;2022-08-03T09:21:22;30.20;37.10
7254;DHT22;4060;49.186;9.226;2022-08-03T09:23:56;30.30;37.20
7254;DHT22;4060;49.186;9.226;2022-08-03T09:26:27;30.30;37.10
7254;DHT22;4060;49.186;9.226;2022-08-03T09:28:58;30.30;37.10
7254;DHT22;4060;49.186;9.226;2022-08-03T09:31:32;30.30;37.10
7254;DHT22;4060;49.186;9.226;2022-08-03T09:34:04;30.30;37.00
7254;DHT22;4060;49.186;9.226;2022-08-03T09:36:39;30.40;37.00
7254;DHT22;4060;49.186;9.226;2022-08-03T09:39:11;30.40;37.00
7254;DHT22;4060;49.186;9.226;2022-08-03T09:41:42;30.40;36.90
7254;DHT22;4060;49.186;9.226;2022-08-03T09:44:12;30.50;36.80
7254;DHT22;4060;49.186;9.226;2022-08-03T09:46:50;30.50;36.70
7254;DHT22;4060;49.186;9.226;2022-08-03T09:49:20;30.50;36.60
7254;DHT22;4060;49.186;9.226;2022-08-03T09:51:49;30.60;36.50
7254;DHT22;4060;49.186;9.226;2022-08-03T09:54:30;30.60;36.50
7254;DHT22;4060;49.186;9.226;2022-08-03T09:57:00;30.60;36.40
7254;DHT22;4060;49.186;9.226;2022-08-03T09:59:31;30.70;36.50
7254;DHT22;4060;49.186;9.226;2022-08-03T10:02:01;30.70;36.40
7254;DHT22;4060;49.186;9.226;2022-08-03T10:04:30;30.80;36.40
7254;DHT22;4060;49.186;9.226;2022-08-03T10:07:05;30.70;36.20
7254;DHT22;4060;49.186;9.226;2022-08-03T10:09:37;30.80;36.20
7254;DHT22;4060;49.186;9.226;2022-08-03T10:12:21;30.80;36.10
7254;DHT22;4060;49.186;9.226;2022-08-03T10:14:51;30.90;36.10
7254;DHT22;4060;49.186;9.226;2022-08-03T10:17:22;30.90;36.00
7254;DHT22;4060;49.186;9.226;2022-08-03T10:19:52;30.90;35.90
7254;DHT22;4060;49.186;9.226;2022-08-03T10:22:23;31.00;35.80
7254;DHT22;4060;49.186;9.226;2022-08-03T10:25:06;31.00;35.70
7254;DHT22;4060;49.186;9.226;2022-08-03T10:27:39;31.10;35.70
7254;DHT22;4060;49.186;9.226;2022-08-03T10:30:09;31.10;35.60
7254;DHT22;4060;49.186;9.226;2022-08-03T10:32:41;31.10;35.40
7254;DHT22;4060;49.186;9.226;2022-08-03T10:35:13;31.20;35.40
7254;DHT22;4060;49.186;9.226;2022-08-03T10:37:44;31.20;35.30
7254;DHT22;4060;49.186;9.226;2022-08-03T10:40:22;31.20;35.20
7254;DHT22;4060;49.186;9.226;2022-08-03T10:42:55;31.30;35.10
7254;DHT22;4060;49.186;9.226;2022-08-03T10:45:27;31.30;35.00
7254;DHT22;4060;49.186;9.226;2022-08-03T10:47:59;31.30;35.00
7254;DHT22;4060;49.186;9.226;2022-08-03T10:50:29;31.40;35.00
7254;DHT22;4060;49.186;9.226;2022-08-03T10:53:00;31.40;34.90
7254;DHT22;4060;49.186;9.226;2022-08-03T10:55:35;31.40;34.80
7254;DHT22;4060;49.186;9.226;2022-08-03T10:58:46;31.40;34.80
7254;DHT22;4060;49.186;9.226;2022-08-03T11:01:18;31.50;34.70
7254;DHT22;4060;49.186;9.226;2022-08-03T11:04:14;31.50;34.70
7254;DHT22;4060;49.186;9.226;2022-08-03T11:07:18;31.50;34.70
7254;DHT22;4060;49.186;9.226;2022-08-03T11:09:49;31.60;34.60
7254;DHT22;4060;49.186;9.226;2022-08-03T11:12:26;31.60;34.50
7254;DHT22;4060;49.186;9.226;2022-08-03T11:14:56;31.60;34.40
7254;DHT22;4060;49.186;9.226;2022-08-03T11:17:26;31.70;34.40
7254;DHT22;4060;49.186;9.226;2022-08-03T11:19:56;31.70;34.30
7254;DHT22;4060;49.186;9.226;2022-08-03T11:22:26;31.80;34.30
7254;DHT22;4060;49.186;9.226;2022-08-03T11:25:17;31.80;34.20
7254;DHT22;4060;49.186;9.226;2022-08-03T11:27:48;31.80;34.10
7254;DHT22;4060;49.186;9.226;2022-08-03T11:30:37;31.90;34.00
7254;DHT22;4060;49.186;9.226;2022-08-03T11:33:07;31.90;34.00
7254;DHT22;4060;49.186;9.226;2022-08-03T11:36:00;32.00;34.00
7254;DHT22;4060;49.186;9.226;2022-08-03T11:38:29;32.00;33.80
7254;DHT22;4060;49.186;9.226;2022-08-03T11:40:59;32.10;33.80
7254;DHT22;4060;49.186;9.226;2022-08-03T11:43:51;32.10;33.70
7254;DHT22;4060;49.186;9.226;2022-08-03T11:46:20;32.10;33.50
7254;DHT22;4060;49.186;9.226;2022-08-03T11:48:50;32.20;33.60
7254;DHT22;4060;49.186;9.226;2022-08-03T11:51:26;32.20;33.50
7254;DHT22;4060;49.186;9.226;2022-08-03T11:53:57;32.30;33.40
7254;DHT22;4060;49.186;9.226;2022-08-03T11:56:28;32.30;33.30
7254;DHT22;4060;49.186;9.226;2022-08-03T11:58:59;32.40;33.30
7254;DHT22;4060;49.186;9.226;2022-08-03T12:01:29;32.40;33.20
7254;DHT22;4060;49.186;9.226;2022-08-03T12:04:03;32.50;33.30
7254;DHT22;4060;49.186;9.226;2022-08-03T12:06:33;32.50;33.10
7254;DHT22;4060;49.186;9.226;2022-08-03T12:09:22;32.60;33.20
7254;DHT22;4060;49.186;9.226;2022-08-03T12:11:52;32.60;33.10
7254;DHT22;4060;49.186;9.226;2022-08-03T12:14:23;32.60;33.00
7254;DHT22;4060;49.186;9.226;2022-08-03T12:16:52;32.70;32.90
7254;DHT22;4060;49.186;9.226;2022-08-03T12:19:23;32.70;32.80
7254;DHT22;4060;49.186;9.226;2022-08-03T12:21:52;32.80;32.80
7254;DHT22;4060;49.186;9.226;2022-08-03T12:24:22;32.80;32.70
7254;DHT22;4060;49.186;9.226;2022-08-03T12:26:55;32.90;32.70
7254;DHT22;4060;49.186;9.226;2022-08-03T12:29:27;32.90;32.60
7254;DHT22;4060;49.186;9.226;2022-08-03T12:31:57;33.00;32.50
7254;DHT22;4060;49.186;9.226;2022-08-03T12:34:44;33.00;32.40
7254;DHT22;4060;49.186;9.226;2022-08-03T12:37:17;33.00;32.30
7254;DHT22;4060;49.186;9.226;2022-08-03T12:39:50;33.10;32.30
7254;DHT22;4060;49.186;9.226;2022-08-03T12:42:19;33.10;32.20
7254;DHT22;4060;49.186;9.226;2022-08-03T12:44:51;33.10;32.20
7254;DHT22;4060;49.186;9.226;2022-08-03T12:47:20;33.20;32.10
7254;DHT22;4060;49.186;9.226;2022-08-03T12:49:51;33.20;32.00
7254;DHT22;4060;49.186;9.226;2022-08-03T12:52:21;33.30;32.00
7254;DHT22;4060;49.186;9.226;2022-08-03T12:54:57;33.30;31.90
7254;DHT22;4060;49.186;9.226;2022-08-03T12:57:40;33.40;31.90
7254;DHT22;4060;49.186;9.226;2022-08-03T13:00:17;33.40;31.80
7254;DHT22;4060;49.186;9.226;2022-08-03T13:02:59;33.50;31.70
7254;DHT22;4060;49.186;9.226;2022-08-03T13:05:31;33.50;31.60
7254;DHT22;4060;49.186;9.226;2022-08-03T13:08:00;33.50;31.60
7254;DHT22;4060;49.186;9.226;2022-08-03T13:10:31;33.60;31.50
7254;DHT22;4060;49.186;9.226;2022-08-03T13:13:01;33.60;31.30
7254;DHT22;4060;49.186;9.226;2022-08-03T13:15:34;33.70;31.30
7254;DHT22;4060;49.186;9.226;2022-08-03T13:18:07;33.70;31.20
7254;DHT22;4060;49.186;9.226;2022-08-03T13:20:37;33.80;31.10
7254;DHT22;4060;49.186;9.226;2022-08-03T13:23:06;33.80;31.10
7254;DHT22;4060;49.186;9.226;2022-08-03T13:25:36;33.90;31.00
7254;DHT22;4060;49.186;9.226;2022-08-03T13:28:06;33.90;31.00
7254;DHT22;4060;49.186;9.226;2022-08-03T13:30:37;33.90;30.90
7254;DHT22;4060;49.186;9.226;2022-08-03T13:33:08;34.00;31.50
7254;DHT22;4060;49.186;9.226;2022-08-03T13:35:37;34.00;30.80
7254;DHT22;4060;49.186;9.226;2022-08-03T13:38:07;34.10;30.80
7254;DHT22;4060;49.186;9.226;2022-08-03T13:40:37;34.10;30.70
7254;DHT22;4060;49.186;9.226;2022-08-03T13:43:06;34.10;30.60
7254;DHT22;4060;49.186;9.226;2022-08-03T13:45:38;34.10;30.50
7254;DHT22;4060;49.186;9.226;2022-08-03T13:48:07;34.20;30.40
7254;DHT22;4060;49.186;9.226;2022-08-03T13:50:37;34.20;30.20
7254;DHT22;4060;49.186;9.226;2022-08-03T13:53:06;34.20;30.00
7254;DHT22;4060;49.186;9.226;2022-08-03T13:55:35;34.40;30.00
7254;DHT22;4060;49.186;9.226;2022-08-03T13:58:05;34.40;30.00
7254;DHT22;4060;49.186;9.226;2022-08-03T14:00:40;34.40;30.00
7254;DHT22;4060;49.186;9.226;2022-08-03T14:03:09;34.40;30.00
7254;DHT22;4060;49.186;9.226;2022-08-03T14:05:38;34.50;30.00
7254;DHT22;4060;49.186;9.226;2022-08-03T14:08:08;34.50;30.00
7254;DHT22;4060;49.186;9.226;2022-08-03T14:10:39;34.60;30.00
7254;DHT22;4060;49.186;9.226;2022-08-03T14:13:10;34.60;30.00
7254;DHT22;4060;49.186;9.226;2022-08-03T14:15:42;34.60;29.90
7254;DHT22;4060;49.186;9.226;2022-08-03T14:18:12;34.60;29.90
7254;DHT22;4060;49.186;9.226;2022-08-03T14:20:41;34.70;29.90
7254;DHT22;4060;49.186;9.226;2022-08-03T14:23:11;34.70;29.80
7254;DHT22;4060;49.186;9.226;2022-08-03T14:25:41;34.80;29.80
7254;DHT22;4060;49.186;9.226;2022-08-03T14:28:11;34.80;29.70
7254;DHT22;4060;49.186;9.226;2022-08-03T14:30:42;34.80;29.60
7254;DHT22;4060;49.186;9.226;2022-08-03T14:33:11;34.90;29.60
7254;DHT22;4060;49.186;9.226;2022-08-03T14:35:41;34.90;29.60
7254;DHT22;4060;49.186;9.226;2022-08-03T14:38:10;34.90;29.50
7254;DHT22;4060;49.186;9.226;2022-08-03T14:40:40;35.00;29.50
7254;DHT22;4060;49.186;9.226;2022-08-03T14:43:09;35.00;29.40
7254;DHT22;4060;49.186;9.226;2022-08-03T14:45:39;35.00;29.40
7254;DHT22;4060;49.186;9.226;2022-08-03T14:48:11;35.10;29.30
7254;DHT22;4060;49.186;9.226;2022-08-03T14:50:40;35.10;29.30
7254;DHT22;4060;49.186;9.226;2022-08-03T14:53:10;35.10;29.20
7254;DHT22;4060;49.186;9.226;2022-08-03T14:55:40;35.10;29.20
7254;DHT22;4060;49.186;9.226;2022-08-03T14:58:09;35.20;29.20
7254;DHT22;4060;49.186;9.226;2022-08-03T15:00:39;35.20;29.10
7254;DHT22;4060;49.186;9.226;2022-08-03T15:03:10;35.20;29.00
7254;DHT22;4060;49.186;9.226;2022-08-03T15:05:39;35.30;29.00
7254;DHT22;4060;49.186;9.226;2022-08-03T15:08:09;35.30;29.00
7254;DHT22;4060;49.186;9.226;2022-08-03T15:10:39;35.30;29.00
7254;DHT22;4060;49.186;9.226;2022-08-03T15:13:09;35.30;29.00
7254;DHT22;4060;49.186;9.226;2022-08-03T15:15:38;35.30;29.00
7254;DHT22;4060;49.186;9.226;2022-08-03T15:18:08;35.40;29.00
7254;DHT22;4060;49.186;9.226;2022-08-03T15:20:40;35.50;29.00
7254;DHT22;4060;49.186;9.226;2022-08-03T15:23:10;35.50;28.90
7254;DHT22;4060;49.186;9.226;2022-08-03T15:25:40;35.50;28.90
7254;DHT22;4060;49.186;9.226;2022-08-03T15:28:09;35.50;28.90
7254;DHT22;4060;49.186;9.226;2022-08-03T15:30:39;35.50;28.90
7254;DHT22;4060;49.186;9.226;2022-08-03T15:33:08;35.50;28.80
7254;DHT22;4060;49.186;9.226;2022-08-03T15:35:40;35.50;28.80
7254;DHT22;4060;49.186;9.226;2022-08-03T15:38:10;35.60;28.80
7254;DHT22;4060;49.186;9.226;2022-08-03T15:40:39;35.60;28.70
7254;DHT22;4060;49.186;9.226;2022-08-03T15:43:09;35.60;28.60
7254;DHT22;4060;49.186;9.226;2022-08-03T15:45:38;35.70;28.70
7254;DHT22;4060;49.186;9.226;2022-08-03T15:48:09;35.60;28.60
7254;DHT22;4060;49.186;9.226;2022-08-03T15:50:40;35.70;28.60
7254;DHT22;4060;49.186;9.226;2022-08-03T15:53:10;35.70;28.60
7254;DHT22;4060;49.186;9.226;2022-08-03T15:55:39;35.80;28.60
7254;DHT22;4060;49.186;9.226;2022-08-03T15:58:10;35.80;28.40
7254;DHT22;4060;49.186;9.226;2022-08-03T16:00:40;35.80;28.40
7254;DHT22;4060;49.186;9.226;2022-08-03T16:03:11;35.80;28.40
7254;DHT22;4060;49.186;9.226;2022-08-03T16:05:42;35.80;28.50
7254;DHT22;4060;49.186;9.226;2022-08-03T16:08:11;35.80;28.40
7254;DHT22;4060;49.186;9.226;2022-08-03T16:10:41;35.80;28.30
7254;DHT22;4060;49.186;9.226;2022-08-03T16:13:11;35.80;28.30
7254;DHT22;4060;49.186;9.226;2022-08-03T16:15:41;35.90;28.70
7254;DHT22;4060;49.186;9.226;2022-08-03T16:18:10;35.90;28.20
7254;DHT22;4060;49.186;9.226;2022-08-03T16:20:42;35.90;28.60
7254;DHT22;4060;49.186;9.226;2022-08-03T16:23:13;35.90;28.20
7254;DHT22;4060;49.186;9.226;2022-08-03T16:25:42;35.90;28.20
7254;DHT22;4060;49.186;9.226;2022-08-03T16:28:12;36.00;28.10
7254;DHT22;4060;49.186;9.226;2022-08-03T16:30:42;35.90;28.00
7254;DHT22;4060;49.186;9.226;2022-08-03T16:33:13;36.00;28.10